createdAt,value
2023-04-16T00:02:00.942Z,96720.22
2023-04-16T00:04:28.183Z,96716.13
2023-04-16T00:06:55.441Z,96722.78
2023-04-16T00:09:22.472Z,96722.97
2023-04-16T00:11:49.437Z,96722.19
2023-04-16T00:14:16.509Z,96717.31
2023-04-16T00:16:43.486Z,96725.81
2023-04-16T00:19:10.847Z,96723.44
2023-04-16T00:21:37.903Z,96713.34
2023-04-16T00:24:04.863Z,96720.88
2023-04-16T00:26:31.797Z,96720.66
2023-04-16T00:28:58.897Z,96724.72
2023-04-16T00:31:29.883Z,96722.44
2023-04-16T00:33:57.275Z,96724.34
2023-04-16T00:36:24.775Z,96722.16
2023-04-16T00:38:51.724Z,96717.03
2023-04-16T00:41:18.771Z,96721.69
2023-04-16T00:43:45.777Z,96719.63
2023-04-16T00:46:12.927Z,96719.44
2023-04-16T00:48:40.750Z,96720.88
2023-04-16T00:51:08.217Z,96722.56
2023-04-16T00:53:35.626Z,96722.28
2023-04-16T00:56:03.367Z,96722.09
2023-04-16T00:58:30.889Z,96727.56
2023-04-16T01:00:57.953Z,96723.69
2023-04-16T01:03:27.695Z,96732.53
2023-04-16T01:05:54.832Z,96725.13
2023-04-16T01:08:22.180Z,96730.91
2023-04-16T01:10:49.199Z,96732.38
2023-04-16T01:13:16.228Z,96727.31
2023-04-16T01:15:43.278Z,96736.03
2023-04-16T01:18:17.120Z,96729.97
2023-04-16T01:20:44.991Z,96729.72
2023-04-16T01:23:11.977Z,96732.41
2023-04-16T01:25:39.308Z,96732.88
2023-04-16T01:28:06.623Z,96735.81
2023-04-16T01:30:33.602Z,96735.50
2023-04-16T01:33:14.779Z,96744.56
2023-04-16T01:35:41.905Z,96746.63
2023-04-16T01:38:09.114Z,96746.53
2023-04-16T01:40:36.599Z,96749.03
2023-04-16T01:43:03.946Z,96747.81
2023-04-16T01:45:34.436Z,96749.78
2023-04-16T01:48:01.556Z,96738.31
2023-04-16T01:50:29.019Z,96740.00
2023-04-16T01:52:55.995Z,96748.25
2023-04-16T01:55:23.073Z,96746.34
2023-04-16T01:57:50.885Z,96740.03
2023-04-16T02:00:18.535Z,96739.44
2023-04-16T02:02:45.949Z,96744.59
2023-04-16T02:05:18.328Z,96745.75
2023-04-16T02:07:46.915Z,96741.72
2023-04-16T02:10:14.217Z,96750.16
2023-04-16T02:12:41.205Z,96746.22
2023-04-16T02:15:08.704Z,96748.72
2023-04-16T02:17:36.019Z,96738.19
2023-04-16T02:20:10.970Z,96748.06
2023-04-16T02:23:07.777Z,96755.00
2023-04-16T02:25:42.186Z,96749.88
2023-04-16T02:28:11.818Z,96746.47
2023-04-16T02:30:41.266Z,96755.16
2023-04-16T02:33:09.528Z,96752.00
2023-04-16T02:35:39.146Z,96762.25
2023-04-16T02:38:06.515Z,96756.41
2023-04-16T02:40:35.511Z,96763.00
2023-04-16T02:43:02.508Z,96764.38
2023-04-16T02:45:31.724Z,96763.50
2023-04-16T02:47:59.034Z,96766.00
2023-04-16T02:50:26.076Z,96768.22
2023-04-16T02:52:53.181Z,96768.56
2023-04-16T02:55:20.374Z,96765.59
2023-04-16T02:57:47.308Z,96769.38
2023-04-16T03:00:14.584Z,96767.50
2023-04-16T03:02:42.649Z,96768.47
2023-04-16T03:05:09.913Z,96763.06
2023-04-16T03:07:39.194Z,96767.25
2023-04-16T03:10:07.420Z,96764.47
2023-04-16T03:12:34.371Z,96768.53
2023-04-16T03:15:01.363Z,96777.38
2023-04-16T03:17:28.581Z,96770.81
2023-04-16T03:19:55.897Z,96777.34
2023-04-16T03:22:23.102Z,96775.63
2023-04-16T03:24:50.089Z,96780.31
2023-04-16T03:27:17.047Z,96783.38
2023-04-16T03:29:45.569Z,96787.13
2023-04-16T03:32:12.806Z,96780.66
2023-04-16T03:34:39.930Z,96790.38
2023-04-16T03:37:06.970Z,96792.63
2023-04-16T03:39:34.764Z,96790.44
2023-04-16T03:42:02.390Z,96792.41
2023-04-16T03:44:29.907Z,96799.06
2023-04-16T03:46:57.128Z,96785.50
2023-04-16T03:49:24.318Z,96787.97
2023-04-16T03:51:52.232Z,96794.19
2023-04-16T03:54:22.470Z,96792.03
2023-04-16T03:56:57.123Z,96793.53
2023-04-16T03:59:24.296Z,96799.59
2023-04-16T04:01:51.406Z,96802.50
2023-04-16T04:04:18.573Z,96804.88
2023-04-16T04:06:46.694Z,96805.91
2023-04-16T04:09:15.200Z,96804.09
2023-04-16T04:11:42.877Z,96804.72
2023-04-16T04:14:09.879Z,96802.75
2023-04-16T04:16:36.944Z,96805.00
2023-04-16T04:19:03.963Z,96812.13
2023-04-16T04:21:31.758Z,96818.50
2023-04-16T04:23:58.889Z,96819.22
2023-04-16T04:26:25.875Z,96819.97
2023-04-16T04:28:52.954Z,96814.09
2023-04-16T04:31:20.060Z,96815.06
2023-04-16T04:33:47.143Z,96814.06
2023-04-16T04:36:14.206Z,96821.38
2023-04-16T04:38:41.495Z,96828.00
2023-04-16T04:41:08.515Z,96834.31
2023-04-16T04:43:37.566Z,96829.94
2023-04-16T04:46:04.694Z,96828.44
2023-04-16T04:48:32.382Z,96829.28
2023-04-16T04:50:59.775Z,96832.50
2023-04-16T04:53:26.753Z,96829.06
2023-04-16T04:55:57.604Z,96834.69
2023-04-16T04:58:33.069Z,96827.19
2023-04-16T05:01:00.080Z,96843.25
2023-04-16T05:03:27.176Z,96839.09
2023-04-16T05:05:54.226Z,96836.31
2023-04-16T05:08:21.206Z,96839.19
2023-04-16T05:10:48.292Z,96841.44
2023-04-16T05:13:15.232Z,96848.38
2023-04-16T05:15:42.280Z,96844.53
2023-04-16T05:18:09.194Z,96847.16
2023-04-16T05:20:37.845Z,96850.19
2023-04-16T05:23:04.831Z,96855.72
2023-04-16T05:25:31.857Z,96852.41
2023-04-16T05:27:58.807Z,96856.63
2023-04-16T05:30:25.862Z,96861.28
2023-04-16T05:32:52.942Z,96863.34
2023-04-16T05:35:20.023Z,96859.50
2023-04-16T05:37:47.057Z,96860.16
2023-04-16T05:40:14.304Z,96867.88
2023-04-16T05:42:41.508Z,96863.75
2023-04-16T05:45:08.992Z,96874.06
2023-04-16T05:47:36.039Z,96874.09
2023-04-16T05:50:03.027Z,96871.59
2023-04-16T05:52:30.036Z,96868.41
2023-04-16T05:54:58.172Z,96870.72
2023-04-16T05:57:25.116Z,96882.28
2023-04-16T05:59:52.069Z,96882.34
2023-04-16T06:02:19.883Z,96879.88
2023-04-16T06:04:47.013Z,96883.50
2023-04-16T06:07:14.100Z,96878.88
2023-04-16T06:09:41.361Z,96884.28
2023-04-16T06:12:08.328Z,96893.16
2023-04-16T06:14:35.858Z,96891.66
2023-04-16T06:17:02.825Z,96889.06
2023-04-16T06:19:29.808Z,96896.47
2023-04-16T06:21:57.183Z,96897.97
2023-04-16T06:24:24.221Z,96892.25
2023-04-16T06:26:51.212Z,96898.13
2023-04-16T06:29:18.159Z,96896.53
2023-04-16T06:31:45.243Z,96902.22
2023-04-16T06:34:12.553Z,96905.13
2023-04-16T06:36:39.498Z,96903.41
2023-04-16T06:39:06.698Z,96905.59
2023-04-16T06:41:33.780Z,96906.34
2023-04-16T06:44:00.789Z,96904.06
2023-04-16T06:46:27.888Z,96907.78
2023-04-16T06:48:54.923Z,96908.91
2023-04-16T06:51:21.870Z,96906.22
2023-04-16T06:53:49.378Z,96909.41
2023-04-16T06:56:16.357Z,96907.25
2023-04-16T06:58:43.349Z,96914.47
2023-04-16T07:01:10.575Z,96911.84
2023-04-16T07:03:37.911Z,96914.19
2023-04-16T07:06:05.010Z,96915.06
2023-04-16T07:08:31.994Z,96915.88
2023-04-16T07:10:58.995Z,96914.53
2023-04-16T07:13:26.081Z,96913.13
2023-04-16T07:15:53.192Z,96922.19
2023-04-16T07:18:20.868Z,96923.28
2023-04-16T07:20:48.141Z,96923.28
2023-04-16T07:23:15.069Z,96919.59
2023-04-16T07:25:42.460Z,96916.63
2023-04-16T07:28:09.514Z,96918.53
2023-04-16T07:30:36.774Z,96912.09
2023-04-16T07:33:03.881Z,96922.75
2023-04-16T07:35:31.369Z,96924.38
2023-04-16T07:37:58.333Z,96924.41
2023-04-16T07:40:25.491Z,96929.69
2023-04-16T07:42:52.491Z,96929.19
2023-04-16T07:45:19.534Z,96933.91
2023-04-16T07:47:46.656Z,96928.66
2023-04-16T07:50:13.677Z,96938.38
2023-04-16T07:52:42.492Z,96937.13
2023-04-16T07:55:09.654Z,96940.50
2023-04-16T07:57:36.608Z,96935.59
2023-04-16T08:00:07.150Z,96932.94
2023-04-16T08:02:43.821Z,96933.97
2023-04-16T08:05:12.606Z,96947.19
2023-04-16T08:07:39.662Z,96940.47
2023-04-16T08:10:07.256Z,96946.09
2023-04-16T08:12:34.339Z,96943.56
2023-04-16T08:15:01.429Z,96941.19
2023-04-16T08:17:29.610Z,96947.00
2023-04-16T08:19:56.635Z,96951.56
2023-04-16T08:22:23.618Z,96952.78
2023-04-16T08:24:50.796Z,96960.84
2023-04-16T08:27:19.866Z,96960.06
2023-04-16T08:29:47.819Z,96961.59
2023-04-16T08:32:14.788Z,96964.53
2023-04-16T08:34:42.459Z,96963.53
2023-04-16T08:37:09.812Z,96969.13
2023-04-16T08:39:37.791Z,96961.50
2023-04-16T08:42:05.671Z,96963.00
2023-04-16T08:44:34.130Z,96969.38
2023-04-16T08:47:01.443Z,96968.88
2023-04-16T08:49:28.738Z,96962.53
2023-04-16T08:51:56.389Z,96963.31
2023-04-16T08:54:56.833Z,96965.25
2023-04-16T08:57:24.283Z,96964.22
2023-04-16T08:59:51.305Z,96964.69
2023-04-16T09:02:18.364Z,96970.22
2023-04-16T09:04:45.558Z,96974.66
2023-04-16T09:07:12.624Z,96969.88
2023-04-16T09:09:39.787Z,96973.44
2023-04-16T09:12:06.725Z,96977.38
2023-04-16T09:14:33.742Z,96983.16
2023-04-16T09:17:02.415Z,96988.50
2023-04-16T09:19:29.477Z,96984.09
2023-04-16T09:21:56.467Z,96993.16
2023-04-16T09:24:23.486Z,96996.91
2023-04-16T09:26:52.704Z,97000.66
2023-04-16T09:29:41.268Z,96997.47
2023-04-16T09:32:09.503Z,96999.53
2023-04-16T09:35:00.766Z,96996.69
2023-04-16T09:37:31.777Z,96998.13
2023-04-16T09:40:02.297Z,97001.56
2023-04-16T09:42:33.325Z,97000.66
2023-04-16T09:45:01.939Z,97003.03
2023-04-16T09:47:44.499Z,97002.75
2023-04-16T09:50:18.222Z,96999.88
2023-04-16T09:52:48.918Z,97010.75
2023-04-16T09:55:16.159Z,97003.09
2023-04-16T09:57:43.135Z,97002.56
2023-04-16T10:00:11.281Z,97002.94
2023-04-16T10:02:42.788Z,97008.38
2023-04-16T10:05:10.333Z,97011.84
2023-04-16T10:07:37.839Z,97010.78
2023-04-16T10:10:05.506Z,97011.75
2023-04-16T10:12:35.738Z,97008.31
2023-04-16T10:15:02.818Z,97019.28
2023-04-16T10:17:30.463Z,97015.00
2023-04-16T10:19:58.722Z,97014.44
2023-04-16T10:22:26.220Z,97018.31
2023-04-16T10:24:53.466Z,97025.53
2023-04-16T10:27:20.451Z,97021.09
2023-04-16T10:29:47.442Z,97024.06
2023-04-16T10:32:14.735Z,97024.44
2023-04-16T10:34:41.795Z,97028.09
2023-04-16T10:37:08.797Z,97035.63
2023-04-16T10:39:38.873Z,97030.50
2023-04-16T10:42:08.934Z,97028.81
2023-04-16T10:44:36.666Z,97041.16
2023-04-16T10:47:03.948Z,97045.75
2023-04-16T10:49:30.958Z,97039.06
2023-04-16T10:51:59.768Z,97046.22
2023-04-16T10:54:34.296Z,97041.72
2023-04-16T10:57:04.559Z,97043.63
2023-04-16T10:59:33.554Z,97041.97
2023-04-16T11:02:04.313Z,97035.00
2023-04-16T11:04:35.856Z,97047.06
2023-04-16T11:07:11.747Z,97047.53
2023-04-16T11:09:49.725Z,97040.84
2023-04-16T11:12:21.561Z,97041.22
2023-04-16T11:14:52.805Z,97037.47
2023-04-16T11:17:20.488Z,97033.63
2023-04-16T11:19:47.746Z,97039.16
2023-04-16T11:22:17.189Z,97033.63
2023-04-16T11:24:47.497Z,97034.72
2023-04-16T11:27:15.264Z,97036.25
2023-04-16T11:29:42.440Z,97039.41
2023-04-16T11:32:09.430Z,97044.94
2023-04-16T11:34:44.899Z,97048.50
2023-04-16T11:37:12.046Z,97053.81
2023-04-16T11:39:52.095Z,97047.03
2023-04-16T11:42:27.009Z,97049.22
2023-04-16T11:44:58.241Z,97051.63
2023-04-16T11:47:25.585Z,97052.41
2023-04-16T11:49:53.038Z,97054.19
2023-04-16T11:52:32.900Z,97046.28
2023-04-16T11:54:59.936Z,97055.13
2023-04-16T11:57:30.964Z,97050.88
2023-04-16T12:00:01.475Z,97052.22
2023-04-16T12:02:41.123Z,97057.03
2023-04-16T12:05:29.359Z,97054.47
2023-04-16T12:07:59.446Z,97057.72
2023-04-16T12:10:27.185Z,97057.97
2023-04-16T12:12:54.206Z,97067.88
2023-04-16T12:15:21.497Z,97054.41
2023-04-16T12:17:48.857Z,97050.78
2023-04-16T12:20:16.345Z,97054.59
2023-04-16T12:22:47.468Z,97056.94
2023-04-16T12:25:15.643Z,97050.16
2023-04-16T12:27:49.473Z,97055.03
2023-04-16T12:30:27.749Z,97059.22
2023-04-16T12:33:14.641Z,97054.78
2023-04-16T12:35:43.462Z,97053.59
2023-04-16T12:38:10.841Z,97049.50
2023-04-16T12:40:38.403Z,97043.88
2023-04-16T12:43:05.584Z,97053.63
2023-04-16T12:45:32.601Z,97052.88
2023-04-16T12:47:59.588Z,97055.44
2023-04-16T12:50:26.683Z,97057.75
2023-04-16T12:52:53.604Z,97054.19
2023-04-16T12:55:20.757Z,97063.16
2023-04-16T12:57:49.083Z,97056.84
2023-04-16T13:00:16.457Z,97050.81
2023-04-16T13:02:43.470Z,97054.00
2023-04-16T13:05:10.856Z,97056.56
2023-04-16T13:07:37.786Z,97057.94
2023-04-16T13:10:06.093Z,97052.75
2023-04-16T13:12:33.110Z,97050.09
2023-04-16T13:15:00.077Z,97049.50
2023-04-16T13:17:27.058Z,97048.94
2023-04-16T13:19:54.077Z,97042.91
2023-04-16T13:22:21.073Z,97050.47
2023-04-16T13:24:48.305Z,97044.63
2023-04-16T13:27:16.178Z,97044.75
2023-04-16T13:29:43.296Z,97044.53
2023-04-16T13:32:10.306Z,97042.81
2023-04-16T13:34:37.354Z,97037.25
2023-04-16T13:37:04.662Z,97041.84
2023-04-16T13:39:31.678Z,97043.91
2023-04-16T13:41:58.686Z,97051.34
2023-04-16T13:44:25.680Z,97049.56
2023-04-16T13:46:52.936Z,97044.06
2023-04-16T13:49:19.978Z,97048.75
2023-04-16T13:51:47.018Z,97046.88
2023-04-16T13:54:13.994Z,97048.34
2023-04-16T13:56:40.960Z,97051.75
2023-04-16T13:59:08.286Z,97051.16
2023-04-16T14:01:35.463Z,97059.72
2023-04-16T14:04:06.761Z,97058.34
2023-04-16T14:06:34.551Z,97050.94
2023-04-16T14:09:01.968Z,97054.47
2023-04-16T14:11:29.033Z,97051.47
2023-04-16T14:13:56.242Z,97053.97
2023-04-16T14:16:23.464Z,97053.75
2023-04-16T14:18:52.060Z,97054.34
2023-04-16T14:21:19.221Z,97056.97
2023-04-16T14:23:46.847Z,97060.28
2023-04-16T14:26:14.553Z,97059.16
2023-04-16T14:28:41.992Z,97052.81
2023-04-16T14:31:09.149Z,97060.03
2023-04-16T14:33:36.975Z,97054.47
2023-04-16T14:36:04.347Z,97053.84
2023-04-16T14:38:31.409Z,97049.66
2023-04-16T14:41:00.355Z,97057.00
2023-04-16T14:43:27.480Z,97060.22
2023-04-16T14:45:54.527Z,97063.56
2023-04-16T14:48:22.169Z,97057.19
2023-04-16T14:50:49.322Z,97059.09
2023-04-16T14:53:16.363Z,97059.69
2023-04-16T14:55:43.357Z,97059.94
2023-04-16T14:58:10.839Z,97052.25
2023-04-16T15:00:37.937Z,97064.06
2023-04-16T15:03:06.065Z,97072.56
2023-04-16T15:05:33.307Z,97066.19
2023-04-16T15:08:00.748Z,97064.72
2023-04-16T15:10:27.878Z,97063.97
2023-04-16T15:12:54.914Z,97069.88
2023-04-16T15:15:21.949Z,97069.72
2023-04-16T15:17:50.473Z,97060.00
2023-04-16T15:20:17.662Z,97068.72
2023-04-16T15:22:44.706Z,97058.38
2023-04-16T15:25:11.753Z,97074.28
2023-04-16T15:27:38.754Z,97075.38
2023-04-16T15:30:06.916Z,97074.03
2023-04-16T15:32:33.926Z,97072.59
2023-04-16T15:35:03.053Z,97068.88
2023-04-16T15:37:30.045Z,97070.19
2023-04-16T15:39:57.421Z,97077.28
2023-04-16T15:42:24.743Z,97069.16
2023-04-16T15:44:51.777Z,97073.56
2023-04-16T15:47:18.927Z,97086.84
2023-04-16T15:49:45.967Z,97078.09
2023-04-16T15:52:13.022Z,97078.28
2023-04-16T15:54:40.001Z,97081.59
2023-04-16T15:57:07.002Z,97085.53
2023-04-16T15:59:34.002Z,97092.09
2023-04-16T16:02:01.416Z,97083.97
2023-04-16T16:04:28.703Z,97090.88
2023-04-16T16:06:56.331Z,97093.03
2023-04-16T16:09:26.812Z,97086.66
2023-04-16T16:11:58.901Z,97091.13
2023-04-16T16:14:26.906Z,97100.19
2023-04-16T16:16:53.977Z,97101.97
2023-04-16T16:19:21.271Z,97104.53
2023-04-16T16:21:48.214Z,97093.72
2023-04-16T16:24:15.662Z,97105.97
2023-04-16T16:26:42.656Z,97100.69
2023-04-16T16:29:09.909Z,97107.66
2023-04-16T16:31:37.219Z,97100.13
2023-04-16T16:34:04.312Z,97103.94
2023-04-16T16:36:34.224Z,97108.47
2023-04-16T16:39:01.986Z,97102.59
2023-04-16T16:41:29.890Z,97100.63
2023-04-16T16:43:58.228Z,97111.97
2023-04-16T16:46:26.535Z,97107.50
2023-04-16T16:48:53.625Z,97112.53
2023-04-16T16:51:20.717Z,97110.72
2023-04-16T16:53:47.868Z,97113.13
2023-04-16T16:56:14.864Z,97107.91
2023-04-16T16:58:42.066Z,97104.91
2023-04-16T17:01:09.256Z,97111.88
2023-04-16T17:03:36.519Z,97117.41
2023-04-16T17:06:03.727Z,97119.69
2023-04-16T17:08:30.834Z,97121.47
2023-04-16T17:10:58.057Z,97118.94
2023-04-16T17:13:25.370Z,97119.69
2023-04-16T17:15:52.474Z,97123.47
2023-04-16T17:18:19.562Z,97125.47
2023-04-16T17:20:46.929Z,97121.47
2023-04-16T17:23:14.878Z,97124.84
2023-04-16T17:25:41.995Z,97128.19
2023-04-16T17:28:09.058Z,97129.38
2023-04-16T17:30:36.149Z,97128.13
2023-04-16T17:33:04.756Z,97133.16
2023-04-16T17:35:32.022Z,97128.97
2023-04-16T17:37:59.038Z,97135.22
2023-04-16T17:40:26.247Z,97131.66
2023-04-16T17:42:53.377Z,97133.94
2023-04-16T17:45:20.464Z,97130.47
2023-04-16T17:47:47.612Z,97139.09
2023-04-16T17:50:14.668Z,97139.38
2023-04-16T17:52:42.010Z,97139.06
2023-04-16T17:55:10.968Z,97153.06
2023-04-16T17:57:38.008Z,97148.44
2023-04-16T18:00:06.504Z,97166.66
2023-04-16T18:02:42.118Z,97164.06
2023-04-16T18:05:09.612Z,97166.66
2023-04-16T18:07:37.707Z,97166.22
2023-04-16T18:10:05.608Z,97165.22
2023-04-16T18:12:32.798Z,97167.47
2023-04-16T18:14:59.935Z,97165.09
2023-04-16T18:17:28.357Z,97179.28
2023-04-16T18:19:56.375Z,97182.31
2023-04-16T18:22:24.341Z,97185.63
2023-04-16T18:24:52.641Z,97182.69
2023-04-16T18:27:21.579Z,97187.94
2023-04-16T18:29:49.501Z,97198.25
2023-04-16T18:32:17.033Z,97190.78
2023-04-16T18:34:44.312Z,97197.19
2023-04-16T18:37:11.456Z,97205.53
2023-04-16T18:39:38.532Z,97208.69
2023-04-16T18:42:05.792Z,97207.75
2023-04-16T18:44:32.869Z,97209.53
2023-04-16T18:47:00.051Z,97209.06
2023-04-16T18:49:27.292Z,97202.59
2023-04-16T18:51:56.010Z,97207.44
2023-04-16T18:54:23.190Z,97210.97
2023-04-16T18:56:50.468Z,97210.72
2023-04-16T18:59:17.550Z,97211.53
2023-04-16T19:01:44.653Z,97216.97
2023-04-16T19:04:11.731Z,97218.91
2023-04-16T19:06:38.829Z,97219.16
2023-04-16T19:09:06.165Z,97234.09
2023-04-16T19:11:33.235Z,97230.75
2023-04-16T19:14:02.483Z,97227.28
2023-04-16T19:16:29.809Z,97226.28
2023-04-16T19:18:56.888Z,97236.75
2023-04-16T19:21:24.005Z,97233.72
2023-04-16T19:23:51.111Z,97236.47
2023-04-16T19:26:18.283Z,97243.44
2023-04-16T19:28:46.132Z,97239.97
2023-04-16T19:31:13.282Z,97236.59
2023-04-16T19:33:41.358Z,97245.19
2023-04-16T19:36:08.447Z,97242.78
2023-04-16T19:38:36.585Z,97249.50
2023-04-16T19:41:03.686Z,97245.22
2023-04-16T19:43:31.222Z,97246.78
2023-04-16T19:45:58.369Z,97241.91
2023-04-16T19:48:25.842Z,97253.09
2023-04-16T19:50:52.969Z,97248.63
2023-04-16T19:53:21.149Z,97240.88
2023-04-16T19:55:48.360Z,97244.94
2023-04-16T19:58:15.622Z,97243.59
2023-04-16T20:00:43.424Z,97247.34
2023-04-16T20:03:10.910Z,97241.44
2023-04-16T20:05:38.026Z,97247.06
2023-04-16T20:08:05.477Z,97251.06
2023-04-16T20:10:32.440Z,97243.56
2023-04-16T20:12:59.546Z,97246.22
2023-04-16T20:15:26.626Z,97246.22
2023-04-16T20:17:53.786Z,97251.53
2023-04-16T20:20:22.813Z,97250.78
2023-04-16T20:22:50.045Z,97254.56
2023-04-16T20:25:19.162Z,97253.75
2023-04-16T20:27:46.366Z,97252.16
2023-04-16T20:30:13.881Z,97247.84
2023-04-16T20:32:40.973Z,97238.97
2023-04-16T20:35:10.940Z,97241.88
2023-04-16T20:37:38.689Z,97243.47
2023-04-16T20:40:08.414Z,97246.16
2023-04-16T20:42:35.659Z,97237.56
2023-04-16T20:45:02.761Z,97234.25
2023-04-16T20:47:29.935Z,97233.59
2023-04-16T20:49:58.288Z,97238.41
2023-04-16T20:52:25.472Z,97237.66
2023-04-16T20:54:52.571Z,97234.72
2023-04-16T20:57:19.551Z,97242.44
2023-04-16T20:59:46.801Z,97241.41
2023-04-16T21:02:13.878Z,97248.88
2023-04-16T21:04:41.257Z,97251.00
2023-04-16T21:07:08.316Z,97245.59
2023-04-16T21:09:35.791Z,97248.84
2023-04-16T21:12:02.838Z,97253.94
2023-04-16T21:14:29.753Z,97241.88
2023-04-16T21:16:57.027Z,97250.97
2023-04-16T21:19:24.058Z,97247.81
2023-04-16T21:21:51.339Z,97244.63
2023-04-16T21:24:18.362Z,97243.28
2023-04-16T21:26:45.334Z,97242.50
2023-04-16T21:29:12.716Z,97244.16
2023-04-16T21:31:39.941Z,97250.28
2023-04-16T21:34:07.148Z,97247.88
2023-04-16T21:36:34.246Z,97252.91
2023-04-16T21:39:01.539Z,97255.53
2023-04-16T21:41:28.633Z,97257.94
2023-04-16T21:43:55.822Z,97260.88
2023-04-16T21:46:23.139Z,97257.78
2023-04-16T21:48:50.853Z,97260.69
2023-04-16T21:51:18.126Z,97259.63
2023-04-16T21:53:45.160Z,97259.09
2023-04-16T21:56:12.154Z,97264.19
2023-04-16T21:58:39.104Z,97256.09
2023-04-16T22:01:07.748Z,97266.31
2023-04-16T22:03:40.223Z,97260.19
2023-04-16T22:06:07.704Z,97260.19
2023-04-16T22:08:34.850Z,97256.38
2023-04-16T22:11:02.557Z,97255.28
2023-04-16T22:13:30.141Z,97259.03
2023-04-16T22:15:57.791Z,97245.69
2023-04-16T22:18:25.817Z,97241.44
2023-04-16T22:20:54.794Z,97244.66
2023-04-16T22:23:25.132Z,97243.56
2023-04-16T22:25:53.868Z,97259.03
2023-04-16T22:28:20.894Z,97248.47
2023-04-16T22:30:47.898Z,97251.16
2023-04-16T22:33:15.104Z,97248.81
2023-04-16T22:35:42.226Z,97248.88
2023-04-16T22:38:10.204Z,97249.97
2023-04-16T22:40:37.223Z,97251.50
2023-04-16T22:43:04.639Z,97251.50
2023-04-16T22:45:31.726Z,97246.25
2023-04-16T22:47:58.800Z,97254.25
2023-04-16T22:50:25.956Z,97254.78
2023-04-16T22:52:52.907Z,97243.53
2023-04-16T22:55:19.958Z,97246.47
2023-04-16T22:57:47.690Z,97236.50
2023-04-16T23:00:17.905Z,97244.09
2023-04-16T23:02:45.230Z,97237.38
2023-04-16T23:05:12.446Z,97233.53
2023-04-16T23:07:39.960Z,97240.72
2023-04-16T23:10:08.662Z,97242.94
2023-04-16T23:12:37.551Z,97241.84
2023-04-16T23:15:06.766Z,97243.78
2023-04-16T23:17:35.115Z,97236.50
2023-04-16T23:20:02.556Z,97231.59
2023-04-16T23:22:29.668Z,97240.50
2023-04-16T23:24:56.709Z,97239.91
2023-04-16T23:27:23.964Z,97234.13
2023-04-16T23:29:50.996Z,97237.41
2023-04-16T23:32:18.069Z,97235.63
2023-04-16T23:34:45.191Z,97235.50
2023-04-16T23:37:12.132Z,97223.31
2023-04-16T23:39:39.160Z,97229.91
2023-04-16T23:42:06.396Z,97231.50
2023-04-16T23:44:33.405Z,97237.56
2023-04-16T23:47:00.570Z,97229.34
2023-04-16T23:49:27.623Z,97231.78
2023-04-16T23:51:54.681Z,97232.16
2023-04-16T23:54:22.014Z,97234.59
2023-04-16T23:56:49.099Z,97231.97
2023-04-16T23:59:16.842Z,97235.34
